sensor_id;sensor_type;location;lat;lon;timestamp;P1;durP1;ratioP1;P2;durP2;ratioP2
10122;SDS011;5101;49.038;8.710;2023-07-20T00:00:24;2.15;;;1.35;;
10122;SDS011;5101;49.038;8.710;2023-07-20T00:02:50;3.42;;;1.23;;
10122;SDS011;5101;49.038;8.710;2023-07-20T00:05:16;1.13;;;1.10;;
10122;SDS011;5101;49.038;8.710;2023-07-20T00:07:43;4.30;;;1.17;;
10122;SDS011;5101;49.038;8.710;2023-07-20T00:10:09;2.30;;;1.10;;
10122;SDS011;5101;49.038;8.710;2023-07-20T00:12:34;1.20;;;1.10;;
10122;SDS011;5101;49.038;8.710;2023-07-20T00:15:00;2.42;;;1.50;;
10122;SDS011;5101;49.038;8.710;2023-07-20T00:17:26;4.00;;;1.75;;
10122;SDS011;5101;49.038;8.710;2023-07-20T00:19:54;1.95;;;1.60;;
10122;SDS011;5101;49.038;8.710;2023-07-20T00:22:20;1.70;;;1.20;;
10122;SDS011;5101;49.038;8.710;2023-07-20T00:24:45;3.50;;;1.30;;
10122;SDS011;5101;49.038;8.710;2023-07-20T00:27:11;1.33;;;1.20;;
10122;SDS011;5101;49.038;8.710;2023-07-20T00:29:36;3.78;;;1.35;;
10122;SDS011;5101;49.038;8.710;2023-07-20T00:32:02;1.38;;;1.27;;
10122;SDS011;5101;49.038;8.710;2023-07-20T00:34:30;3.40;;;1.20;;
10122;SDS011;5101;49.038;8.710;2023-07-20T00:36:55;2.45;;;0.90;;
10122;SDS011;5101;49.038;8.710;2023-07-20T00:39:21;2.97;;;1.55;;
10122;SDS011;5101;49.038;8.710;2023-07-20T00:41:47;4.13;;;1.20;;
10122;SDS011;5101;49.038;8.710;2023-07-20T00:44:12;2.05;;;1.15;;
10122;SDS011;5101;49.038;8.710;2023-07-20T00:46:37;2.90;;;1.60;;
10122;SDS011;5101;49.038;8.710;2023-07-20T00:49:03;2.90;;;1.92;;
10122;SDS011;5101;49.038;8.710;2023-07-20T00:51:31;2.22;;;1.58;;
10122;SDS011;5101;49.038;8.710;2023-07-20T00:53:56;3.40;;;1.52;;
10122;SDS011;5101;49.038;8.710;2023-07-20T00:56:22;1.98;;;1.40;;
10122;SDS011;5101;49.038;8.710;2023-07-20T00:58:48;1.65;;;1.33;;
10122;SDS011;5101;49.038;8.710;2023-07-20T01:01:13;3.55;;;1.52;;
10122;SDS011;5101;49.038;8.710;2023-07-20T01:03:39;2.60;;;1.70;;
10122;SDS011;5101;49.038;8.710;2023-07-20T01:06:14;1.88;;;1.30;;
10122;SDS011;5101;49.038;8.710;2023-07-20T01:11:43;5.20;;;2.05;;
10122;SDS011;5101;49.038;8.710;2023-07-20T01:14:24;3.42;;;2.30;;
10122;SDS011;5101;49.038;8.710;2023-07-20T01:16:50;4.28;;;2.17;;
10122;SDS011;5101;49.038;8.710;2023-07-20T01:19:17;2.72;;;1.70;;
10122;SDS011;5101;49.038;8.710;2023-07-20T01:21:45;4.95;;;1.92;;
10122;SDS011;5101;49.038;8.710;2023-07-20T01:24:26;4.53;;;2.03;;
10122;SDS011;5101;49.038;8.710;2023-07-20T01:27:03;3.47;;;2.00;;
10122;SDS011;5101;49.038;8.710;2023-07-20T01:32:31;1.67;;;1.58;;
10122;SDS011;5101;49.038;8.710;2023-07-20T01:34:56;2.42;;;1.45;;
10122;SDS011;5101;49.038;8.710;2023-07-20T01:37:24;1.25;;;1.15;;
10122;SDS011;5101;49.038;8.710;2023-07-20T01:39:53;1.80;;;1.38;;
10122;SDS011;5101;49.038;8.710;2023-07-20T01:42:22;3.25;;;1.42;;
10122;SDS011;5101;49.038;8.710;2023-07-20T01:44:52;2.58;;;1.17;;
10122;SDS011;5101;49.038;8.710;2023-07-20T01:47:18;1.75;;;1.13;;
10122;SDS011;5101;49.038;8.710;2023-07-20T01:49:44;2.70;;;1.38;;
10122;SDS011;5101;49.038;8.710;2023-07-20T01:52:10;1.95;;;1.63;;
10122;SDS011;5101;49.038;8.710;2023-07-20T01:54:35;5.03;;;1.77;;
10122;SDS011;5101;49.038;8.710;2023-07-20T01:57:01;3.83;;;2.17;;
10122;SDS011;5101;49.038;8.710;2023-07-20T01:59:27;3.33;;;2.13;;
10122;SDS011;5101;49.038;8.710;2023-07-20T02:01:52;4.32;;;1.60;;
10122;SDS011;5101;49.038;8.710;2023-07-20T02:04:18;2.65;;;1.65;;
10122;SDS011;5101;49.038;8.710;2023-07-20T02:06:43;4.93;;;1.70;;
10122;SDS011;5101;49.038;8.710;2023-07-20T02:09:09;3.53;;;1.42;;
10122;SDS011;5101;49.038;8.710;2023-07-20T02:11:34;2.55;;;1.30;;
10122;SDS011;5101;49.038;8.710;2023-07-20T02:14:00;1.90;;;1.38;;
10122;SDS011;5101;49.038;8.710;2023-07-20T02:16:25;1.55;;;1.40;;
10122;SDS011;5101;49.038;8.710;2023-07-20T02:18:52;2.83;;;1.63;;
10122;SDS011;5101;49.038;8.710;2023-07-20T02:21:17;3.03;;;1.42;;
10122;SDS011;5101;49.038;8.710;2023-07-20T02:23:43;5.25;;;1.60;;
10122;SDS011;5101;49.038;8.710;2023-07-20T02:26:08;4.80;;;1.65;;
10122;SDS011;5101;49.038;8.710;2023-07-20T02:28:34;2.35;;;1.38;;
10122;SDS011;5101;49.038;8.710;2023-07-20T02:30:59;3.33;;;1.42;;
10122;SDS011;5101;49.038;8.710;2023-07-20T02:33:25;2.45;;;1.60;;
10122;SDS011;5101;49.038;8.710;2023-07-20T02:35:51;2.13;;;1.25;;
10122;SDS011;5101;49.038;8.710;2023-07-20T02:38:17;2.00;;;1.30;;
10122;SDS011;5101;49.038;8.710;2023-07-20T02:40:42;2.58;;;1.35;;
10122;SDS011;5101;49.038;8.710;2023-07-20T02:43:08;3.65;;;1.50;;
10122;SDS011;5101;49.038;8.710;2023-07-20T02:45:34;4.07;;;1.40;;
10122;SDS011;5101;49.038;8.710;2023-07-20T02:48:00;6.97;;;2.03;;
10122;SDS011;5101;49.038;8.710;2023-07-20T02:50:26;7.43;;;3.80;;
10122;SDS011;5101;49.038;8.710;2023-07-20T02:52:51;4.53;;;3.10;;
10122;SDS011;5101;49.038;8.710;2023-07-20T02:55:17;3.35;;;2.35;;
10122;SDS011;5101;49.038;8.710;2023-07-20T02:57:42;1.95;;;1.67;;
10122;SDS011;5101;49.038;8.710;2023-07-20T03:00:08;2.30;;;1.60;;
10122;SDS011;5101;49.038;8.710;2023-07-20T03:02:34;1.52;;;1.25;;
10122;SDS011;5101;49.038;8.710;2023-07-20T03:04:59;2.67;;;1.52;;
10122;SDS011;5101;49.038;8.710;2023-07-20T03:07:26;1.33;;;1.23;;
10122;SDS011;5101;49.038;8.710;2023-07-20T03:09:53;2.25;;;1.35;;
10122;SDS011;5101;49.038;8.710;2023-07-20T03:12:20;5.05;;;1.50;;
10122;SDS011;5101;49.038;8.710;2023-07-20T03:14:45;3.53;;;1.50;;
10122;SDS011;5101;49.038;8.710;2023-07-20T03:17:11;2.55;;;1.42;;
10122;SDS011;5101;49.038;8.710;2023-07-20T03:19:36;3.10;;;1.50;;
10122;SDS011;5101;49.038;8.710;2023-07-20T03:22:02;3.40;;;1.40;;
10122;SDS011;5101;49.038;8.710;2023-07-20T03:24:27;2.13;;;1.50;;
10122;SDS011;5101;49.038;8.710;2023-07-20T03:26:53;5.40;;;1.40;;
10122;SDS011;5101;49.038;8.710;2023-07-20T03:29:19;2.38;;;1.25;;
10122;SDS011;5101;49.038;8.710;2023-07-20T03:31:44;1.35;;;1.25;;
10122;SDS011;5101;49.038;8.710;2023-07-20T03:34:10;4.10;;;1.60;;
10122;SDS011;5101;49.038;8.710;2023-07-20T03:36:35;3.25;;;1.60;;
10122;SDS011;5101;49.038;8.710;2023-07-20T03:39:01;3.45;;;1.48;;
10122;SDS011;5101;49.038;8.710;2023-07-20T03:41:27;2.70;;;1.80;;
10122;SDS011;5101;49.038;8.710;2023-07-20T03:43:53;2.30;;;1.52;;
10122;SDS011;5101;49.038;8.710;2023-07-20T03:46:19;2.60;;;1.42;;
10122;SDS011;5101;49.038;8.710;2023-07-20T03:48:44;2.83;;;1.70;;
10122;SDS011;5101;49.038;8.710;2023-07-20T03:51:10;2.92;;;2.03;;
10122;SDS011;5101;49.038;8.710;2023-07-20T03:53:35;2.00;;;1.90;;
10122;SDS011;5101;49.038;8.710;2023-07-20T03:56:01;3.87;;;2.07;;
10122;SDS011;5101;49.038;8.710;2023-07-20T03:58:27;2.28;;;1.95;;
10122;SDS011;5101;49.038;8.710;2023-07-20T04:00:52;3.75;;;2.08;;
10122;SDS011;5101;49.038;8.710;2023-07-20T04:03:18;2.42;;;2.10;;
10122;SDS011;5101;49.038;8.710;2023-07-20T04:05:44;2.90;;;1.50;;
10122;SDS011;5101;49.038;8.710;2023-07-20T04:08:10;3.47;;;1.90;;
10122;SDS011;5101;49.038;8.710;2023-07-20T04:10:36;2.00;;;1.83;;
10122;SDS011;5101;49.038;8.710;2023-07-20T04:13:03;1.92;;;1.75;;
10122;SDS011;5101;49.038;8.710;2023-07-20T04:15:29;2.75;;;1.77;;
10122;SDS011;5101;49.038;8.710;2023-07-20T04:17:55;2.28;;;1.85;;
10122;SDS011;5101;49.038;8.710;2023-07-20T04:20:21;1.77;;;1.65;;
10122;SDS011;5101;49.038;8.710;2023-07-20T04:22:47;2.63;;;1.70;;
10122;SDS011;5101;49.038;8.710;2023-07-20T04:25:12;4.10;;;1.65;;
10122;SDS011;5101;49.038;8.710;2023-07-20T04:27:38;1.90;;;1.45;;
10122;SDS011;5101;49.038;8.710;2023-07-20T04:30:04;4.53;;;1.70;;
10122;SDS011;5101;49.038;8.710;2023-07-20T04:32:31;3.05;;;1.85;;
10122;SDS011;5101;49.038;8.710;2023-07-20T04:34:58;1.98;;;1.58;;
10122;SDS011;5101;49.038;8.710;2023-07-20T04:37:24;1.50;;;1.40;;
10122;SDS011;5101;49.038;8.710;2023-07-20T04:39:49;3.33;;;1.77;;
10122;SDS011;5101;49.038;8.710;2023-07-20T04:42:15;2.85;;;1.70;;
10122;SDS011;5101;49.038;8.710;2023-07-20T04:44:41;2.20;;;1.67;;
10122;SDS011;5101;49.038;8.710;2023-07-20T04:47:07;4.47;;;1.70;;
10122;SDS011;5101;49.038;8.710;2023-07-20T04:49:33;3.05;;;1.83;;
10122;SDS011;5101;49.038;8.710;2023-07-20T04:51:59;3.28;;;2.33;;
10122;SDS011;5101;49.038;8.710;2023-07-20T04:54:24;2.17;;;1.70;;
10122;SDS011;5101;49.038;8.710;2023-07-20T04:56:52;2.78;;;2.22;;
10122;SDS011;5101;49.038;8.710;2023-07-20T04:59:18;6.10;;;1.70;;
10122;SDS011;5101;49.038;8.710;2023-07-20T05:01:43;2.47;;;1.80;;
10122;SDS011;5101;49.038;8.710;2023-07-20T05:04:09;2.88;;;1.67;;
10122;SDS011;5101;49.038;8.710;2023-07-20T05:06:35;2.40;;;1.70;;
10122;SDS011;5101;49.038;8.710;2023-07-20T05:09:00;1.95;;;1.73;;
10122;SDS011;5101;49.038;8.710;2023-07-20T05:11:25;2.75;;;1.83;;
10122;SDS011;5101;49.038;8.710;2023-07-20T05:13:51;3.08;;;1.65;;
10122;SDS011;5101;49.038;8.710;2023-07-20T05:16:16;2.47;;;1.98;;
10122;SDS011;5101;49.038;8.710;2023-07-20T05:18:42;1.67;;;1.58;;
10122;SDS011;5101;49.038;8.710;2023-07-20T05:21:07;7.57;;;2.17;;
10122;SDS011;5101;49.038;8.710;2023-07-20T05:23:33;4.70;;;1.70;;
10122;SDS011;5101;49.038;8.710;2023-07-20T05:25:59;4.47;;;1.63;;
10122;SDS011;5101;49.038;8.710;2023-07-20T05:28:24;4.72;;;2.03;;
10122;SDS011;5101;49.038;8.710;2023-07-20T05:30:51;4.28;;;1.52;;
10122;SDS011;5101;49.038;8.710;2023-07-20T05:33:18;2.38;;;1.45;;
10122;SDS011;5101;49.038;8.710;2023-07-20T05:35:44;4.30;;;1.60;;
10122;SDS011;5101;49.038;8.710;2023-07-20T05:38:09;4.57;;;1.95;;
10122;SDS011;5101;49.038;8.710;2023-07-20T05:40:39;1.77;;;1.50;;
10122;SDS011;5101;49.038;8.710;2023-07-20T05:43:06;4.35;;;1.70;;
10122;SDS011;5101;49.038;8.710;2023-07-20T05:45:31;4.63;;;1.65;;
10122;SDS011;5101;49.038;8.710;2023-07-20T05:47:56;2.10;;;1.40;;
10122;SDS011;5101;49.038;8.710;2023-07-20T05:50:22;2.38;;;1.38;;
10122;SDS011;5101;49.038;8.710;2023-07-20T05:52:47;3.03;;;1.52;;
10122;SDS011;5101;49.038;8.710;2023-07-20T05:55:13;1.85;;;1.40;;
10122;SDS011;5101;49.038;8.710;2023-07-20T05:57:39;4.15;;;1.70;;
10122;SDS011;5101;49.038;8.710;2023-07-20T06:00:08;5.20;;;1.60;;
10122;SDS011;5101;49.038;8.710;2023-07-20T06:02:34;2.35;;;1.30;;
10122;SDS011;5101;49.038;8.710;2023-07-20T06:05:00;5.45;;;1.65;;
10122;SDS011;5101;49.038;8.710;2023-07-20T06:07:26;4.78;;;1.40;;
10122;SDS011;5101;49.038;8.710;2023-07-20T06:09:51;3.35;;;1.65;;
10122;SDS011;5101;49.038;8.710;2023-07-20T06:12:17;3.88;;;1.65;;
10122;SDS011;5101;49.038;8.710;2023-07-20T06:14:43;4.65;;;1.65;;
10122;SDS011;5101;49.038;8.710;2023-07-20T06:17:08;9.43;;;1.58;;
10122;SDS011;5101;49.038;8.710;2023-07-20T06:19:35;4.78;;;1.30;;
10122;SDS011;5101;49.038;8.710;2023-07-20T06:22:00;3.83;;;1.27;;
10122;SDS011;5101;49.038;8.710;2023-07-20T06:24:26;2.08;;;1.35;;
10122;SDS011;5101;49.038;8.710;2023-07-20T06:26:51;2.53;;;1.52;;
10122;SDS011;5101;49.038;8.710;2023-07-20T06:29:17;3.13;;;1.30;;
10122;SDS011;5101;49.038;8.710;2023-07-20T06:31:42;3.47;;;1.50;;
10122;SDS011;5101;49.038;8.710;2023-07-20T06:34:08;6.05;;;1.60;;
10122;SDS011;5101;49.038;8.710;2023-07-20T06:36:33;2.83;;;1.55;;
10122;SDS011;5101;49.038;8.710;2023-07-20T06:39:00;1.88;;;1.30;;
10122;SDS011;5101;49.038;8.710;2023-07-20T06:41:25;4.57;;;1.70;;
10122;SDS011;5101;49.038;8.710;2023-07-20T06:43:51;1.30;;;1.00;;
10122;SDS011;5101;49.038;8.710;2023-07-20T06:46:17;1.80;;;1.15;;
10122;SDS011;5101;49.038;8.710;2023-07-20T06:48:43;1.50;;;1.15;;
10122;SDS011;5101;49.038;8.710;2023-07-20T06:51:08;2.30;;;1.25;;
10122;SDS011;5101;49.038;8.710;2023-07-20T06:53:34;2.25;;;1.00;;
10122;SDS011;5101;49.038;8.710;2023-07-20T06:55:59;4.10;;;1.45;;
10122;SDS011;5101;49.038;8.710;2023-07-20T06:58:25;2.57;;;1.40;;
10122;SDS011;5101;49.038;8.710;2023-07-20T07:00:51;1.95;;;1.27;;
10122;SDS011;5101;49.038;8.710;2023-07-20T07:03:16;3.17;;;1.60;;
10122;SDS011;5101;49.038;8.710;2023-07-20T07:05:42;2.25;;;1.50;;
10122;SDS011;5101;49.038;8.710;2023-07-20T07:08:09;5.28;;;1.50;;
10122;SDS011;5101;49.038;8.710;2023-07-20T07:10:35;4.05;;;1.60;;
10122;SDS011;5101;49.038;8.710;2023-07-20T07:13:01;3.63;;;1.63;;
10122;SDS011;5101;49.038;8.710;2023-07-20T07:15:27;2.17;;;1.48;;
10122;SDS011;5101;49.038;8.710;2023-07-20T07:17:53;3.15;;;1.42;;
10122;SDS011;5101;49.038;8.710;2023-07-20T07:20:18;2.72;;;1.50;;
10122;SDS011;5101;49.038;8.710;2023-07-20T07:22:44;3.65;;;1.48;;
10122;SDS011;5101;49.038;8.710;2023-07-20T07:25:10;2.00;;;1.25;;
10122;SDS011;5101;49.038;8.710;2023-07-20T07:27:36;2.30;;;1.45;;
10122;SDS011;5101;49.038;8.710;2023-07-20T07:30:02;1.92;;;1.42;;
10122;SDS011;5101;49.038;8.710;2023-07-20T07:32:28;2.38;;;1.23;;
10122;SDS011;5101;49.038;8.710;2023-07-20T07:34:54;3.67;;;1.40;;
10122;SDS011;5101;49.038;8.710;2023-07-20T07:37:20;7.32;;;1.15;;
10122;SDS011;5101;49.038;8.710;2023-07-20T07:39:46;4.28;;;1.63;;
10122;SDS011;5101;49.038;8.710;2023-07-20T07:42:11;2.55;;;1.15;;
10122;SDS011;5101;49.038;8.710;2023-07-20T07:44:38;2.17;;;1.30;;
10122;SDS011;5101;49.038;8.710;2023-07-20T07:47:03;2.53;;;1.30;;
10122;SDS011;5101;49.038;8.710;2023-07-20T07:49:29;4.25;;;1.15;;
10122;SDS011;5101;49.038;8.710;2023-07-20T07:51:56;2.50;;;1.10;;
10122;SDS011;5101;49.038;8.710;2023-07-20T07:54:21;1.30;;;0.98;;
10122;SDS011;5101;49.038;8.710;2023-07-20T07:56:47;3.60;;;1.30;;
10122;SDS011;5101;49.038;8.710;2023-07-20T07:59:13;1.92;;;1.10;;
10122;SDS011;5101;49.038;8.710;2023-07-20T08:01:38;4.32;;;1.30;;
10122;SDS011;5101;49.038;8.710;2023-07-20T08:04:03;3.38;;;1.52;;
10122;SDS011;5101;49.038;8.710;2023-07-20T08:06:29;2.70;;;1.40;;
10122;SDS011;5101;49.038;8.710;2023-07-20T08:08:55;3.75;;;1.40;;
10122;SDS011;5101;49.038;8.710;2023-07-20T08:11:20;6.30;;;1.38;;
10122;SDS011;5101;49.038;8.710;2023-07-20T08:13:46;2.13;;;1.15;;
10122;SDS011;5101;49.038;8.710;2023-07-20T08:16:11;2.63;;;1.33;;
10122;SDS011;5101;49.038;8.710;2023-07-20T08:18:37;3.13;;;1.40;;
10122;SDS011;5101;49.038;8.710;2023-07-20T08:21:02;3.28;;;1.20;;
10122;SDS011;5101;49.038;8.710;2023-07-20T08:23:28;1.20;;;1.02;;
10122;SDS011;5101;49.038;8.710;2023-07-20T08:25:54;2.30;;;1.30;;
10122;SDS011;5101;49.038;8.710;2023-07-20T08:28:19;1.85;;;1.20;;
10122;SDS011;5101;49.038;8.710;2023-07-20T08:30:46;1.55;;;1.23;;
10122;SDS011;5101;49.038;8.710;2023-07-20T08:33:13;2.75;;;1.00;;
10122;SDS011;5101;49.038;8.710;2023-07-20T08:35:39;2.17;;;1.30;;
10122;SDS011;5101;49.038;8.710;2023-07-20T08:38:05;3.35;;;1.20;;
10122;SDS011;5101;49.038;8.710;2023-07-20T08:40:32;2.90;;;1.25;;
10122;SDS011;5101;49.038;8.710;2023-07-20T08:42:59;1.48;;;1.20;;
10122;SDS011;5101;49.038;8.710;2023-07-20T08:45:27;1.55;;;1.05;;
10122;SDS011;5101;49.038;8.710;2023-07-20T08:47:57;1.52;;;0.93;;
10122;SDS011;5101;49.038;8.710;2023-07-20T08:50:25;1.25;;;1.15;;
10122;SDS011;5101;49.038;8.710;2023-07-20T08:52:52;2.58;;;1.00;;
10122;SDS011;5101;49.038;8.710;2023-07-20T08:55:19;4.07;;;0.95;;
10122;SDS011;5101;49.038;8.710;2023-07-20T08:57:47;1.30;;;1.00;;
10122;SDS011;5101;49.038;8.710;2023-07-20T09:00:15;3.70;;;1.30;;
10122;SDS011;5101;49.038;8.710;2023-07-20T09:02:42;3.63;;;1.08;;
10122;SDS011;5101;49.038;8.710;2023-07-20T09:05:10;2.95;;;1.10;;
10122;SDS011;5101;49.038;8.710;2023-07-20T09:07:35;2.08;;;1.17;;
10122;SDS011;5101;49.038;8.710;2023-07-20T09:10:01;3.03;;;0.90;;
10122;SDS011;5101;49.038;8.710;2023-07-20T09:12:31;1.95;;;1.10;;
10122;SDS011;5101;49.038;8.710;2023-07-20T09:14:59;2.03;;;0.90;;
10122;SDS011;5101;49.038;8.710;2023-07-20T09:17:25;2.90;;;1.00;;
10122;SDS011;5101;49.038;8.710;2023-07-20T09:19:52;1.08;;;0.90;;
10122;SDS011;5101;49.038;8.710;2023-07-20T09:22:19;2.55;;;0.93;;
10122;SDS011;5101;49.038;8.710;2023-07-20T09:24:44;1.27;;;0.80;;
10122;SDS011;5101;49.038;8.710;2023-07-20T09:27:10;2.50;;;1.10;;
10122;SDS011;5101;49.038;8.710;2023-07-20T09:29:57;1.88;;;0.95;;
10122;SDS011;5101;49.038;8.710;2023-07-20T09:32:21;3.45;;;1.00;;
10122;SDS011;5101;49.038;8.710;2023-07-20T09:34:48;2.10;;;1.02;;
10122;SDS011;5101;49.038;8.710;2023-07-20T09:37:19;1.90;;;1.13;;
10122;SDS011;5101;49.038;8.710;2023-07-20T09:39:48;2.35;;;1.20;;
10122;SDS011;5101;49.038;8.710;2023-07-20T09:42:17;2.78;;;1.45;;
10122;SDS011;5101;49.038;8.710;2023-07-20T09:44:43;2.63;;;0.93;;
10122;SDS011;5101;49.038;8.710;2023-07-20T09:47:09;1.65;;;1.20;;
10122;SDS011;5101;49.038;8.710;2023-07-20T09:49:41;2.00;;;1.08;;
10122;SDS011;5101;49.038;8.710;2023-07-20T09:52:11;2.85;;;1.35;;
10122;SDS011;5101;49.038;8.710;2023-07-20T09:54:39;3.90;;;1.30;;
10122;SDS011;5101;49.038;8.710;2023-07-20T09:57:09;3.83;;;1.75;;
10122;SDS011;5101;49.038;8.710;2023-07-20T09:59:38;2.20;;;1.20;;
10122;SDS011;5101;49.038;8.710;2023-07-20T10:02:05;2.85;;;1.17;;
10122;SDS011;5101;49.038;8.710;2023-07-20T10:04:38;1.67;;;1.48;;
10122;SDS011;5101;49.038;8.710;2023-07-20T10:07:05;3.03;;;1.20;;
10122;SDS011;5101;49.038;8.710;2023-07-20T10:09:36;3.72;;;1.40;;
10122;SDS011;5101;49.038;8.710;2023-07-20T10:12:04;1.88;;;1.08;;
10122;SDS011;5101;49.038;8.710;2023-07-20T10:14:32;2.65;;;1.00;;
10122;SDS011;5101;49.038;8.710;2023-07-20T10:17:05;2.55;;;1.60;;
10122;SDS011;5101;49.038;8.710;2023-07-20T10:19:34;1.20;;;1.10;;
10122;SDS011;5101;49.038;8.710;2023-07-20T10:22:09;1.38;;;0.95;;
10122;SDS011;5101;49.038;8.710;2023-07-20T10:24:44;2.47;;;1.00;;
10122;SDS011;5101;49.038;8.710;2023-07-20T10:27:10;2.58;;;1.27;;
10122;SDS011;5101;49.038;8.710;2023-07-20T10:29:36;3.05;;;0.95;;
10122;SDS011;5101;49.038;8.710;2023-07-20T10:32:03;2.85;;;0.98;;
10122;SDS011;5101;49.038;8.710;2023-07-20T10:34:29;2.65;;;1.05;;
10122;SDS011;5101;49.038;8.710;2023-07-20T10:36:55;0.85;;;0.85;;
10122;SDS011;5101;49.038;8.710;2023-07-20T10:39:24;0.82;;;0.82;;
10122;SDS011;5101;49.038;8.710;2023-07-20T10:41:59;2.47;;;0.90;;
10122;SDS011;5101;49.038;8.710;2023-07-20T10:44:29;3.33;;;0.90;;
10122;SDS011;5101;49.038;8.710;2023-07-20T10:47:01;2.60;;;1.00;;
10122;SDS011;5101;49.038;8.710;2023-07-20T10:49:30;1.92;;;1.00;;
10122;SDS011;5101;49.038;8.710;2023-07-20T10:51:59;2.38;;;1.05;;
10122;SDS011;5101;49.038;8.710;2023-07-20T10:56:55;1.17;;;1.05;;
10122;SDS011;5101;49.038;8.710;2023-07-20T11:01:50;2.15;;;1.20;;
10122;SDS011;5101;49.038;8.710;2023-07-20T11:04:21;1.15;;;0.77;;
10122;SDS011;5101;49.038;8.710;2023-07-20T11:07:02;1.08;;;0.88;;
10122;SDS011;5101;49.038;8.710;2023-07-20T11:09:32;2.47;;;1.70;;
10122;SDS011;5101;49.038;8.710;2023-07-20T11:12:09;3.15;;;1.10;;
10122;SDS011;5101;49.038;8.710;2023-07-20T11:14:36;1.05;;;0.88;;
10122;SDS011;5101;49.038;8.710;2023-07-20T11:17:12;1.98;;;1.10;;
10122;SDS011;5101;49.038;8.710;2023-07-20T11:19:38;5.45;;;1.50;;
10122;SDS011;5101;49.038;8.710;2023-07-20T11:22:04;1.42;;;1.10;;
10122;SDS011;5101;49.038;8.710;2023-07-20T11:24:32;1.75;;;0.73;;
10122;SDS011;5101;49.038;8.710;2023-07-20T11:26:58;1.83;;;1.30;;
10122;SDS011;5101;49.038;8.710;2023-07-20T11:29:26;3.90;;;0.90;;
10122;SDS011;5101;49.038;8.710;2023-07-20T11:31:51;0.80;;;0.73;;
10122;SDS011;5101;49.038;8.710;2023-07-20T11:34:17;1.27;;;1.10;;
10122;SDS011;5101;49.038;8.710;2023-07-20T11:36:45;0.95;;;0.90;;
10122;SDS011;5101;49.038;8.710;2023-07-20T11:39:19;2.08;;;0.95;;
10122;SDS011;5101;49.038;8.710;2023-07-20T11:41:47;1.50;;;0.90;;
10122;SDS011;5101;49.038;8.710;2023-07-20T11:44:17;1.30;;;0.90;;
10122;SDS011;5101;49.038;8.710;2023-07-20T11:46:44;1.55;;;0.95;;
10122;SDS011;5101;49.038;8.710;2023-07-20T11:49:09;1.08;;;0.82;;
10122;SDS011;5101;49.038;8.710;2023-07-20T11:51:35;2.17;;;0.90;;
10122;SDS011;5101;49.038;8.710;2023-07-20T11:54:02;0.80;;;0.80;;
10122;SDS011;5101;49.038;8.710;2023-07-20T11:56:29;1.23;;;0.75;;
10122;SDS011;5101;49.038;8.710;2023-07-20T11:58:56;1.20;;;0.70;;
10122;SDS011;5101;49.038;8.710;2023-07-20T12:01:24;0.70;;;0.70;;
10122;SDS011;5101;49.038;8.710;2023-07-20T12:03:51;3.30;;;0.85;;
10122;SDS011;5101;49.038;8.710;2023-07-20T12:06:16;2.67;;;0.95;;
10122;SDS011;5101;49.038;8.710;2023-07-20T12:08:42;2.58;;;0.88;;
10122;SDS011;5101;49.038;8.710;2023-07-20T12:11:09;1.00;;;0.90;;
10122;SDS011;5101;49.038;8.710;2023-07-20T12:13:42;1.73;;;0.82;;
10122;SDS011;5101;49.038;8.710;2023-07-20T12:16:12;1.42;;;0.80;;
10122;SDS011;5101;49.038;8.710;2023-07-20T12:18:39;1.63;;;0.88;;
10122;SDS011;5101;49.038;8.710;2023-07-20T12:21:06;0.80;;;0.80;;
10122;SDS011;5101;49.038;8.710;2023-07-20T12:23:37;1.15;;;0.80;;
10122;SDS011;5101;49.038;8.710;2023-07-20T12:26:05;0.98;;;0.77;;
10122;SDS011;5101;49.038;8.710;2023-07-20T12:28:32;2.08;;;1.00;;
10122;SDS011;5101;49.038;8.710;2023-07-20T12:30:57;1.45;;;0.90;;
10122;SDS011;5101;49.038;8.710;2023-07-20T12:33:23;2.33;;;0.93;;
10122;SDS011;5101;49.038;8.710;2023-07-20T12:35:49;0.90;;;0.82;;
10122;SDS011;5101;49.038;8.710;2023-07-20T12:38:15;2.55;;;0.80;;
10122;SDS011;5101;49.038;8.710;2023-07-20T12:40:41;0.70;;;0.70;;
10122;SDS011;5101;49.038;8.710;2023-07-20T12:43:07;0.95;;;0.82;;
10122;SDS011;5101;49.038;8.710;2023-07-20T12:45:33;1.05;;;0.85;;
10122;SDS011;5101;49.038;8.710;2023-07-20T12:47:59;1.83;;;0.80;;
10122;SDS011;5101;49.038;8.710;2023-07-20T12:50:24;1.00;;;0.80;;
10122;SDS011;5101;49.038;8.710;2023-07-20T12:52:50;2.53;;;1.08;;
10122;SDS011;5101;49.038;8.710;2023-07-20T12:55:15;0.80;;;0.80;;
10122;SDS011;5101;49.038;8.710;2023-07-20T12:57:41;1.25;;;0.82;;
10122;SDS011;5101;49.038;8.710;2023-07-20T13:00:08;1.58;;;0.90;;
10122;SDS011;5101;49.038;8.710;2023-07-20T13:02:35;1.10;;;0.73;;
10122;SDS011;5101;49.038;8.710;2023-07-20T13:05:01;1.05;;;0.80;;
10122;SDS011;5101;49.038;8.710;2023-07-20T13:07:30;2.55;;;0.80;;
10122;SDS011;5101;49.038;8.710;2023-07-20T13:09:57;1.35;;;0.90;;
10122;SDS011;5101;49.038;8.710;2023-07-20T13:12:25;1.75;;;0.85;;
10122;SDS011;5101;49.038;8.710;2023-07-20T13:14:55;2.30;;;1.00;;
10122;SDS011;5101;49.038;8.710;2023-07-20T13:17:21;4.05;;;1.05;;
10122;SDS011;5101;49.038;8.710;2023-07-20T13:19:48;1.52;;;0.80;;
10122;SDS011;5101;49.038;8.710;2023-07-20T13:22:13;2.30;;;0.88;;
10122;SDS011;5101;49.038;8.710;2023-07-20T13:24:39;0.80;;;0.80;;
10122;SDS011;5101;49.038;8.710;2023-07-20T13:27:05;0.90;;;0.77;;
10122;SDS011;5101;49.038;8.710;2023-07-20T13:29:31;0.80;;;0.80;;
10122;SDS011;5101;49.038;8.710;2023-07-20T13:31:57;1.98;;;0.77;;
10122;SDS011;5101;49.038;8.710;2023-07-20T13:34:23;1.40;;;0.70;;
10122;SDS011;5101;49.038;8.710;2023-07-20T13:36:50;2.15;;;0.70;;
10122;SDS011;5101;49.038;8.710;2023-07-20T13:39:15;2.00;;;0.68;;
10122;SDS011;5101;49.038;8.710;2023-07-20T13:41:41;0.60;;;0.60;;
10122;SDS011;5101;49.038;8.710;2023-07-20T13:44:07;0.73;;;0.70;;
10122;SDS011;5101;49.038;8.710;2023-07-20T13:46:32;1.25;;;0.90;;
10122;SDS011;5101;49.038;8.710;2023-07-20T13:48:59;3.03;;;0.60;;
10122;SDS011;5101;49.038;8.710;2023-07-20T13:51:24;0.77;;;0.70;;
10122;SDS011;5101;49.038;8.710;2023-07-20T13:53:51;1.48;;;0.63;;
10122;SDS011;5101;49.038;8.710;2023-07-20T13:56:16;0.60;;;0.60;;
10122;SDS011;5101;49.038;8.710;2023-07-20T13:58:42;4.35;;;0.77;;
10122;SDS011;5101;49.038;8.710;2023-07-20T14:01:07;1.30;;;0.70;;
10122;SDS011;5101;49.038;8.710;2023-07-20T14:03:33;0.90;;;0.75;;
10122;SDS011;5101;49.038;8.710;2023-07-20T14:05:58;0.70;;;0.70;;
10122;SDS011;5101;49.038;8.710;2023-07-20T14:08:24;0.57;;;0.57;;
10122;SDS011;5101;49.038;8.710;2023-07-20T14:10:49;1.05;;;0.80;;
10122;SDS011;5101;49.038;8.710;2023-07-20T14:13:15;0.80;;;0.70;;
10122;SDS011;5101;49.038;8.710;2023-07-20T14:15:40;1.05;;;0.70;;
10122;SDS011;5101;49.038;8.710;2023-07-20T14:18:06;0.55;;;0.55;;
10122;SDS011;5101;49.038;8.710;2023-07-20T14:20:31;0.57;;;0.57;;
10122;SDS011;5101;49.038;8.710;2023-07-20T14:22:57;1.23;;;0.60;;
10122;SDS011;5101;49.038;8.710;2023-07-20T14:25:22;0.60;;;0.60;;
10122;SDS011;5101;49.038;8.710;2023-07-20T14:27:48;1.02;;;0.93;;
10122;SDS011;5101;49.038;8.710;2023-07-20T14:30:13;0.73;;;0.70;;
10122;SDS011;5101;49.038;8.710;2023-07-20T14:32:40;1.23;;;0.80;;
10122;SDS011;5101;49.038;8.710;2023-07-20T14:35:06;0.88;;;0.57;;
10122;SDS011;5101;49.038;8.710;2023-07-20T14:37:32;1.90;;;0.70;;
10122;SDS011;5101;49.038;8.710;2023-07-20T14:39:58;2.28;;;0.63;;
10122;SDS011;5101;49.038;8.710;2023-07-20T14:42:23;0.80;;;0.80;;
10122;SDS011;5101;49.038;8.710;2023-07-20T14:44:49;0.70;;;0.60;;
10122;SDS011;5101;49.038;8.710;2023-07-20T14:47:14;2.67;;;0.80;;
10122;SDS011;5101;49.038;8.710;2023-07-20T14:49:40;0.50;;;0.50;;
10122;SDS011;5101;49.038;8.710;2023-07-20T14:52:06;0.60;;;0.60;;
10122;SDS011;5101;49.038;8.710;2023-07-20T14:54:32;1.92;;;0.63;;
10122;SDS011;5101;49.038;8.710;2023-07-20T14:56:57;0.95;;;0.70;;
10122;SDS011;5101;49.038;8.710;2023-07-20T14:59:23;1.15;;;0.60;;
10122;SDS011;5101;49.038;8.710;2023-07-20T15:01:48;0.68;;;0.68;;
10122;SDS011;5101;49.038;8.710;2023-07-20T15:04:14;1.13;;;0.63;;
10122;SDS011;5101;49.038;8.710;2023-07-20T15:06:40;1.42;;;0.90;;